Time;durP1;ratioP1;P1;durP2;ratioP2;P2;SDS_P1;SDS_P2;PMS_P1;PMS_P2;Temp;Humidity;BMP_temperature;BMP_pressure;BME280_temperature;BME280_humidity;BME280_pressure;Samples;Min_cycle;Max_cycle;Signal;HPM_P1;HPM_P2
2021/04/27 00:00:15;;;;;;;9.77;6.30;;;256.90;2201.60;;;;;;4916449;29;20056;-87
2021/04/27 00:02:41;;;;;;;13.75;7.50;;;256.90;2176.00;;;;;;4899217;29;20499;-79
2021/04/27 00:05:09;;;;;;;10.20;7.10;;;256.70;2227.20;;;;;;4899013;29;20064;-79
2021/04/27 00:07:35;;;;;;;11.65;7.47;;;256.70;2201.60;;;;;;4899350;29;20026;-79
2021/04/27 00:10:07;;;;;;;8.93;6.05;;;256.90;2201.60;;;;;;4930156;29;20031;-89
2021/04/27 00:12:33;;;;;;;8.63;6.53;;;281.80;2176.00;;;;;;4918310;29;20039;-84
2021/04/27 00:14:59;;;;;;;9.90;6.72;;;281.70;2176.00;;;;;;4918103;29;20391;-87
2021/04/27 00:17:24;;;;;;;12.60;6.72;;;281.60;2201.60;;;;;;4935573;29;20026;-79
2021/04/27 00:19:50;;;;;;;10.20;6.80;;;256.70;2201.60;;;;;;4917914;29;20062;-80
2021/04/27 00:22:16;;;;;;;;;;;256.60;2227.20;;;;;;4914787;29;20491;-80
2021/04/27 00:24:42;;;;;;;9.85;6.55;;;256.70;2201.60;;;;;;4916302;29;20423;-90
2021/04/27 00:27:08;;;;;;;14.70;5.82;;;256.90;2201.60;;;;;;4914174;29;20118;-79
2021/04/27 00:29:34;;;;;;;8.30;5.68;;;281.60;2150.40;;;;;;4917960;29;20027;-90
2021/04/27 00:31:59;;;;;;;9.15;6.30;;;281.70;2176.00;;;;;;4917242;29;20385;-78
2021/04/27 00:34:25;;;;;;;9.93;7.03;;;281.60;2176.00;;;;;;4904191;29;20028;-79
2021/04/27 00:36:52;;;;;;;11.57;6.68;;;281.80;2176.00;;;;;;4917833;29;20023;-79
2021/04/27 00:39:17;;;;;;;10.07;6.57;;;281.80;2150.40;;;;;;4917648;29;20028;-79
2021/04/27 00:41:43;;;;;;;10.93;6.88;;;281.90;2124.80;;;;;;4917723;29;20028;-90
2021/04/27 00:44:09;;;;;;;10.50;6.65;;;281.90;2150.40;;;;;;4917715;29;20039;-89
2021/04/27 00:46:35;;;;;;;10.45;7.00;;;281.60;2176.00;;;;;;4917858;29;20028;-79
2021/04/27 00:49:01;;;;;;;12.73;7.25;;;281.70;2176.00;;;;;;4918059;29;20110;-79
2021/04/27 00:51:26;;;;;;;;;;;281.70;2201.60;;;;;;4918195;29;20476;-90
2021/04/27 00:53:52;;;;;;;9.98;6.88;;;281.80;2201.60;;;;;;4917789;29;20009;-79
2021/04/27 00:56:20;;;;;;;10.25;6.82;;;281.90;2176.00;;;;;;4934677;29;20501;-79
2021/04/27 00:58:46;;;;;;;14.45;7.50;;;281.90;2176.00;;;;;;4934964;29;20473;-91
2021/04/27 01:01:12;;;;;;;12.75;7.07;;;281.90;2176.00;;;;;;4915375;29;20039;-79
2021/04/27 01:03:39;;;;;;;10.82;7.43;;;282.00;2150.40;;;;;;4906872;29;20047;-82
2021/04/27 01:06:06;;;;;;;10.93;6.97;;;281.90;2176.00;;;;;;4917576;29;20023;-82
2021/04/27 01:08:51;;;;;;;10.60;7.10;;;281.90;2176.00;;;;;;4914723;29;20111;-89
2021/04/27 01:11:39;;;;;;;11.30;8.05;;;282.00;2201.60;;;;;;4909729;29;20114;-79
2021/04/27 01:14:35;;;;;;;11.25;7.68;;;281.90;2227.20;;;;;;4902053;29;20114;-88
2021/04/27 01:17:05;;;;;;;9.80;7.77;;;281.90;2201.60;;;;;;4899253;29;20111;-90
2021/04/27 01:19:46;;;;;;;14.68;7.97;;;281.90;2201.60;;;;;;4917725;29;20273;-79
2021/04/27 01:22:20;;;;;;;14.77;8.18;;;281.90;2227.20;;;;;;4934357;29;20472;-79
2021/04/27 01:25:00;;;;;;;11.35;7.95;;;281.90;2227.20;;;;;;4917516;29;20032;-79
2021/04/27 01:27:26;;;;;;;12.55;8.25;;;282.00;2201.60;;;;;;4917679;29;20380;-91
2021/04/27 01:29:52;;;;;;;13.15;8.73;;;282.00;2176.00;;;;;;4916979;29;20050;-90
2021/04/27 01:32:20;;;;;;;12.60;8.25;;;282.10;2201.60;;;;;;4917179;29;20056;-92
2021/04/27 01:34:46;;;;;;;12.95;8.13;;;282.10;2201.60;;;;;;4917326;29;20027;-79
2021/04/27 01:37:14;;;;;;;11.32;8.60;;;282.10;2201.60;;;;;;4917321;29;20038;-80
2021/04/27 01:39:41;;;;;;;12.23;8.07;;;282.00;2227.20;;;;;;4917293;29;20027;-88
2021/04/27 01:42:08;;;;;;;14.23;7.80;;;282.10;2201.60;;;;;;4917437;29;20436;-80
2021/04/27 01:44:35;;;;;;;13.68;8.18;;;282.10;2201.60;;;;;;4918699;29;20047;-79
2021/04/27 01:47:02;;;;;;;11.30;8.38;;;282.00;2201.60;;;;;;4921206;29;20030;-80
2021/04/27 01:49:30;;;;;;;11.43;7.72;;;282.10;2201.60;;;;;;4937664;29;20488;-80
2021/04/27 01:51:57;;;;;;;13.63;8.52;;;282.20;2176.00;;;;;;4921180;29;20032;-90
2021/04/27 01:54:29;;;;;;;13.45;9.05;;;282.10;2176.00;;;;;;4920526;29;20036;-88
2021/04/27 01:56:56;;;;;;;17.83;9.85;;;282.00;2227.20;;;;;;4920765;29;20551;-79
2021/04/27 01:59:22;;;;;;;14.32;8.90;;;282.00;2227.20;;;;;;4920416;29;20038;-80
2021/04/27 02:01:48;;;;;;;14.23;9.50;;;282.00;2227.20;;;;;;4920451;29;20102;-79
2021/04/27 02:04:22;;;;;;;12.68;8.82;;;282.00;2227.20;;;;;;4907950;29;20481;-79
2021/04/27 02:06:48;;;;;;;14.00;9.02;;;282.00;2227.20;;;;;;4901604;29;20028;-80
2021/04/27 02:09:15;;;;;;;20.70;9.10;;;281.90;2227.20;;;;;;4905377;29;20029;-83
2021/04/27 02:11:45;;;;;;;13.10;9.13;;;282.10;2227.20;;;;;;4932373;29;20020;-88
2021/04/27 02:14:13;;;;;;;15.75;10.50;;;282.00;2227.20;;;;;;4920179;29;20109;-85
2021/04/27 02:17:15;;;;;;;12.90;9.43;;;281.90;2252.80;;;;;;4917751;29;20031;-81
2021/04/27 02:19:43;;;;;;;14.30;9.88;;;281.90;2252.80;;;;;;4901213;29;20643;-79
2021/04/27 02:22:10;;;;;;;18.65;9.93;;;281.90;2252.80;;;;;;4907989;29;20365;-79
2021/04/27 02:24:38;;;;;;;14.57;9.73;;;281.90;2227.20;;;;;;4901437;29;20031;-79
2021/04/27 02:27:05;;;;;;;16.75;9.90;;;281.90;2227.20;;;;;;4918032;29;20480;-90
2021/04/27 02:29:34;;;;;;;15.80;10.27;;;281.90;2252.80;;;;;;4900905;29;20026;-80
2021/04/27 02:32:01;;;;;;;15.48;10.80;;;282.00;2227.20;;;;;;4900683;29;20515;-79
2021/04/27 02:34:28;;;;;;;17.38;11.07;;;281.70;2252.80;;;;;;4901485;29;20031;-79
2021/04/27 02:36:55;;;;;;;13.85;10.25;;;281.60;2278.40;;;;;;4900821;29;20421;-80
2021/04/27 02:39:21;;;;;;;12.90;10.00;;;281.60;2278.40;;;;;;4900713;29;20028;-81
2021/04/27 02:41:47;;;;;;;15.13;10.48;;;281.70;2278.40;;;;;;4917940;29;20020;-91
2021/04/27 02:44:14;;;;;;;15.98;10.77;;;281.60;2278.40;;;;;;4900793;29;20485;-82
2021/04/27 02:46:42;;;;;;;17.67;11.50;;;281.60;2278.40;;;;;;4917903;29;20366;-89
2021/04/27 02:49:10;;;;;;;14.90;11.00;;;256.90;2252.80;;;;;;4900700;29;20059;-79
2021/04/27 02:51:35;;;;;;;18.20;10.98;;;256.80;2252.80;;;;;;4900920;29;20028;-88
2021/04/27 02:54:02;;;;;;;17.67;10.43;;;256.90;2252.80;;;;;;4900731;29;20393;-90
2021/04/27 02:56:27;;;;;;;15.50;10.48;;;256.90;2252.80;;;;;;4916781;29;20051;-79
2021/04/27 02:58:54;;;;;;;14.77;10.25;;;281.70;2278.40;;;;;;4917553;29;20086;-79
2021/04/27 03:01:20;;;;;;;15.70;10.13;;;281.70;2278.40;;;;;;4900360;29;20028;-78
2021/04/27 03:03:46;;;;;;;14.68;10.95;;;281.70;2278.40;;;;;;4900496;29;20115;-79
2021/04/27 03:06:11;;;;;;;15.85;11.82;;;281.60;2278.40;;;;;;4900065;29;20025;-91
2021/04/27 03:08:37;;;;;;;15.30;11.02;;;281.60;2278.40;;;;;;4917278;29;20527;-79
2021/04/27 03:11:03;;;;;;;;;;;281.70;2278.40;;;;;;4910034;29;20174;-79
2021/04/27 03:13:29;;;;;;;17.80;11.25;;;281.70;2278.40;;;;;;4917611;29;20084;-79
2021/04/27 03:15:54;;;;;;;;;;;281.70;2278.40;;;;;;4901477;29;20091;-79
2021/04/27 03:18:20;;;;;;;14.35;10.70;;;281.70;2278.40;;;;;;4930353;29;20311;-91
2021/04/27 03:20:46;;;;;;;;;;;281.70;2278.40;;;;;;4919266;29;20027;-90
2021/04/27 03:23:12;;;;;;;20.90;12.40;;;281.70;2278.40;;;;;;4919104;29;20360;-79
2021/04/27 03:25:39;;;;;;;16.13;11.27;;;281.70;2278.40;;;;;;4918989;29;20016;-80
2021/04/27 03:28:06;;;;;;;15.82;11.70;;;281.80;2278.40;;;;;;4919087;29;20167;-79
2021/04/27 03:30:32;;;;;;;18.92;12.65;;;281.60;2278.40;;;;;;4935771;29;20055;-79
2021/04/27 03:32:58;;;;;;;20.73;13.45;;;256.90;2252.80;;;;;;4918864;29;20040;-79
2021/04/27 03:35:24;;;;;;;19.60;12.15;;;256.90;2252.80;;;;;;4922484;29;20028;-79
2021/04/27 03:37:51;;;;;;;19.27;12.27;;;281.60;2278.40;;;;;;4918773;29;20495;-80
2021/04/27 03:40:16;;;;;;;17.35;12.38;;;281.60;2278.40;;;;;;4919177;29;20031;-79
2021/04/27 03:42:42;;;;;;;19.35;13.43;;;256.90;2252.80;;;;;;4935666;29;20027;-91
2021/04/27 03:45:10;;;;;;;;;;;256.80;2252.80;;;;;;4936507;29;20024;-79
2021/04/27 03:47:36;;;;;;;15.98;12.38;;;256.70;2252.80;;;;;;4918630;29;19911;-83
2021/04/27 03:50:05;;;;;;;17.02;12.85;;;256.50;2252.80;;;;;;4919613;29;20031;-79
2021/04/27 03:52:31;;;;;;;19.38;14.00;;;256.40;2252.80;;;;;;4935183;29;20035;-79
2021/04/27 03:54:56;;;;;;;17.60;13.57;;;256.40;2252.80;;;;;;4918658;29;20031;-79
2021/04/27 03:57:22;;;;;;;;;;;256.40;2252.80;;;;;;4919467;29;20460;-83
2021/04/27 03:59:48;;;;;;;16.08;12.18;;;256.30;2252.80;;;;;;4904899;29;19911;-80
2021/04/27 04:02:13;;;;;;;;;;;256.20;2252.80;;;;;;4925677;29;20028;-80
2021/04/27 04:04:39;;;;;;;19.52;13.88;;;256.20;2252.80;;;;;;4932428;29;20462;-79
2021/04/27 04:07:04;;;;;;;;;;;256.10;2252.80;;;;;;4927180;29;20055;-79
2021/04/27 04:09:30;;;;;;;17.95;13.88;;;256.00;2252.80;;;;;;4903108;29;19907;-80
2021/04/27 04:11:56;;;;;;;;;;;256.00;2252.80;;;;;;4932790;29;20075;-79
2021/04/27 04:14:21;;;;;;;21.98;13.68;;;256.00;2252.80;;;;;;4918173;29;20385;-90
2021/04/27 04:16:47;;;;;;;;;;;256.00;2252.80;;;;;;4935734;29;20043;-79
2021/04/27 04:19:13;;;;;;;21.58;12.77;;;256.00;2252.80;;;;;;4918347;29;19914;-79
2021/04/27 04:21:39;;;;;;;;;;;256.20;2252.80;;;;;;4935500;29;20464;-80
2021/04/27 04:24:04;;;;;;;16.63;11.98;;;256.20;2252.80;;;;;;4935070;29;19950;-79
2021/04/27 04:26:30;;;;;;;;;;;256.20;2252.80;;;;;;4918460;29;20032;-79
2021/04/27 04:28:56;;;;;;;17.45;12.63;;;256.30;2252.80;;;;;;4935218;29;19964;-79
2021/04/27 04:31:21;;;;;;;;;;;256.40;2252.80;;;;;;4909913;29;20465;-80
2021/04/27 04:33:47;;;;;;;18.58;12.70;;;256.40;2252.80;;;;;;4929549;29;19933;-80
2021/04/27 04:36:13;;;;;;;;;;;256.30;2252.80;;;;;;4899468;29;20027;-80
2021/04/27 04:38:39;;;;;;;16.30;12.27;;;256.30;2252.80;;;;;;4911319;29;19959;-79
2021/04/27 04:41:04;;;;;;;21.05;11.73;;;256.40;2252.80;;;;;;4917905;29;20028;-79
2021/04/27 04:43:30;;;;;;;18.67;13.40;;;256.50;2252.80;;;;;;4917912;29;20024;-78
2021/04/27 04:45:56;;;;;;;;;;;256.50;2252.80;;;;;;4915483;29;20059;-78
2021/04/27 04:48:22;;;;;;;15.85;11.50;;;256.60;2252.80;;;;;;4907139;29;19953;-79
2021/04/27 04:50:47;;;;;;;;;;;256.50;2252.80;;;;;;4918130;29;20035;-79
2021/04/27 04:53:13;;;;;;;18.65;12.82;;;256.50;2252.80;;;;;;4917840;29;19914;-79
2021/04/27 04:55:39;;;;;;;;;;;256.70;2252.80;;;;;;4918347;29;20030;-86
2021/04/27 04:58:04;;;;;;;20.45;13.50;;;256.80;2252.80;;;;;;4913151;29;19997;-79
2021/04/27 05:00:30;;;;;;;;;;;256.70;2252.80;;;;;;4899066;29;20402;-79
2021/04/27 05:02:56;;;;;;;17.35;12.52;;;256.70;2252.80;;;;;;4898837;29;19926;-79
2021/04/27 05:05:22;;;;;;;;;;;256.70;2252.80;;;;;;4899110;29;20125;-79
2021/04/27 05:07:57;;;;;;;15.77;11.88;;;256.70;2252.80;;;;;;4898768;29;20101;-80
2021/04/27 05:10:23;;;;;;;16.83;12.02;;;256.60;2252.80;;;;;;4902853;29;20023;-91
2021/04/27 05:12:49;;;;;;;19.05;12.80;;;256.60;2252.80;;;;;;4934726;29;20039;-79
2021/04/27 05:15:15;;;;;;;24.83;14.10;;;256.60;2252.80;;;;;;4934605;29;20028;-82
2021/04/27 05:17:41;;;;;;;17.75;13.25;;;256.60;2252.80;;;;;;4917740;29;20023;-80
2021/04/27 05:20:08;;;;;;;19.42;14.07;;;256.50;2252.80;;;;;;4919674;29;20023;-78
2021/04/27 05:22:34;;;;;;;18.35;13.20;;;256.50;2252.80;;;;;;4915489;29;20028;-80
2021/04/27 05:24:59;;;;;;;23.25;12.88;;;256.50;2252.80;;;;;;4931559;29;20024;-79
2021/04/27 05:27:25;;;;;;;18.45;13.40;;;256.60;2252.80;;;;;;4921128;29;20103;-81
2021/04/27 05:29:51;;;;;;;;;;;256.70;2252.80;;;;;;4911525;29;20096;-80
2021/04/27 05:32:17;;;;;;;20.30;12.77;;;256.70;2252.80;;;;;;4917451;29;20343;-81
2021/04/27 05:34:42;;;;;;;;;;;256.70;2252.80;;;;;;4921395;29;20034;-80
2021/04/27 05:37:09;;;;;;;16.83;12.35;;;256.60;2252.80;;;;;;4920612;29;19910;-78
2021/04/27 05:39:34;;;;;;;17.85;12.48;;;256.60;2252.80;;;;;;4916893;29;20119;-83
2021/04/27 05:42:00;;;;;;;21.02;12.65;;;256.80;2252.80;;;;;;4917128;29;20486;-80
2021/04/27 05:44:26;;;;;;;;;;;256.90;2252.80;;;;;;4921836;29;20024;-78
2021/04/27 05:46:52;;;;;;;17.75;12.20;;;256.90;2252.80;;;;;;4922938;29;19907;-80
2021/04/27 05:49:18;;;;;;;17.95;12.15;;;281.60;2278.40;;;;;;4901433;29;20481;-78
2021/04/27 05:51:44;;;;;;;20.95;13.18;;;256.90;2252.80;;;;;;4906807;29;20538;-82
2021/04/27 05:54:10;;;;;;;19.95;12.30;;;281.60;2278.40;;;;;;4912019;29;20119;-85
2021/04/27 05:56:36;;;;;;;;;;;281.70;2278.40;;;;;;4927327;29;20469;-82
2021/04/27 05:59:02;;;;;;;19.73;12.05;;;281.60;2278.40;;;;;;4932686;29;19959;-81
2021/04/27 06:01:28;;;;;;;20.40;13.20;;;281.60;2278.40;;;;;;4929218;29;20059;-84
2021/04/27 06:03:55;;;;;;;22.30;12.98;;;281.70;2278.40;;;;;;4927096;29;20476;-79
2021/04/27 06:06:21;;;;;;;17.70;13.40;;;281.80;2278.40;;;;;;4910786;29;20472;-80
2021/04/27 06:08:47;;;;;;;19.05;13.35;;;281.80;2278.40;;;;;;4928109;29;20098;-79
2021/04/27 06:11:13;;;;;;;23.50;14.18;;;281.70;2278.40;;;;;;4909403;29;20028;-80
2021/04/27 06:13:39;;;;;;;19.85;14.20;;;281.80;2278.40;;;;;;4928349;29;20042;-79
2021/04/27 06:16:05;;;;;;;20.23;14.27;;;282.00;2278.40;;;;;;4911504;29;20110;-80
2021/04/27 06:18:32;;;;;;;20.27;14.43;;;282.00;2278.40;;;;;;4909094;29;20032;-78
2021/04/27 06:20:58;;;;;;;19.27;13.02;;;282.00;2278.40;;;;;;4928260;29;20085;-78
2021/04/27 06:23:25;;;;;;;19.88;13.10;;;282.10;2278.40;;;;;;4927226;29;20024;-79
2021/04/27 06:25:51;;;;;;;17.58;12.40;;;282.00;2278.40;;;;;;4926228;29;20067;-79
2021/04/27 06:28:17;;;;;;;19.13;12.68;;;282.00;2278.40;;;;;;4910721;29;20095;-79
2021/04/27 06:30:44;;;;;;;19.05;12.10;;;282.00;2278.40;;;;;;4909931;29;20501;-78
2021/04/27 06:33:10;;;;;;;17.10;11.82;;;282.00;2278.40;;;;;;4921932;29;20079;-79
2021/04/27 06:35:36;;;;;;;20.52;11.68;;;282.10;2278.40;;;;;;4917361;29;20019;-80
2021/04/27 06:38:02;;;;;;;17.85;12.32;;;282.10;2278.40;;;;;;4919066;29;20024;-81
2021/04/27 06:40:28;;;;;;;14.52;10.98;;;281.90;2278.40;;;;;;4907486;29;20495;-79
2021/04/27 06:42:54;;;;;;;21.02;12.13;;;282.00;2278.40;;;;;;4917635;29;20044;-78
2021/04/27 06:45:20;;;;;;;16.65;12.90;;;282.10;2278.40;;;;;;4917362;29;20100;-78
2021/04/27 06:47:46;;;;;;;17.73;13.35;;;282.20;2278.40;;;;;;4900480;29;20034;-79
2021/04/27 06:50:14;;;;;;;21.25;14.20;;;282.10;2278.40;;;;;;4900390;29;20024;-79
2021/04/27 06:52:39;;;;;;;20.92;13.38;;;282.20;2278.40;;;;;;4901688;29;20032;-79
2021/04/27 06:55:06;;;;;;;20.08;13.93;;;282.20;2278.40;;;;;;4917310;29;20477;-78
2021/04/27 06:57:31;;;;;;;21.48;14.32;;;282.30;2278.40;;;;;;4900458;29;20032;-79
2021/04/27 06:59:57;;;;;;;18.88;14.57;;;282.30;2278.40;;;;;;4900450;29;20036;-82
2021/04/27 07:02:23;;;;;;;18.83;14.23;;;282.30;2278.40;;;;;;4917111;29;20029;-79
2021/04/27 07:04:48;;;;;;;18.75;12.38;;;282.30;2278.40;;;;;;4901671;29;20036;-79
2021/04/27 07:07:14;;;;;;;;;;;282.10;2278.40;;;;;;4917398;29;20031;-82
2021/04/27 07:09:40;;;;;;;18.50;11.52;;;282.20;2278.40;;;;;;4900134;29;19907;-78
2021/04/27 07:12:06;;;;;;;18.33;13.65;;;282.20;2278.40;;;;;;4934106;29;20023;-79
2021/04/27 07:14:32;;;;;;;18.67;12.77;;;282.20;2278.40;;;;;;4936183;29;20027;-79
2021/04/27 07:16:58;;;;;;;20.90;13.82;;;282.20;2278.40;;;;;;4918579;29;20034;-80
2021/04/27 07:19:24;;;;;;;30.80;22.15;;;282.20;2278.40;;;;;;4935300;29;20024;-79
2021/04/27 07:21:50;;;;;;;;;;;282.30;2278.40;;;;;;4936202;29;20110;-79
2021/04/27 07:24:16;;;;;;;18.20;13.45;;;282.30;2278.40;;;;;;4912847;29;19933;-79
2021/04/27 07:26:43;;;;;;;;;;;282.30;2278.40;;;;;;4917099;29;20473;-81
2021/04/27 07:29:09;;;;;;;20.70;12.90;;;282.40;2278.40;;;;;;4916456;29;19914;-78
2021/04/27 07:31:36;;;;;;;;;;;282.30;2278.40;;;;;;4918947;29;20140;-78
2021/04/27 07:34:02;;;;;;;21.15;14.35;;;282.40;2278.40;;;;;;4903756;29;19923;-78
2021/04/27 07:36:27;;;;;;;;;;;282.20;2278.40;;;;;;4899677;29;20504;-79
2021/04/27 07:38:53;;;;;;;21.23;14.80;;;282.20;2278.40;;;;;;4899242;29;19907;-80
2021/04/27 07:41:19;;;;;;;20.48;12.80;;;282.20;2278.40;;;;;;4916177;29;20031;-79
2021/04/27 07:43:44;;;;;;;;;;;282.30;2278.40;;;;;;4899537;29;20020;-79
2021/04/27 07:46:10;;;;;;;18.92;11.75;;;282.10;2278.40;;;;;;4899375;29;19911;-80
2021/04/27 07:48:36;;;;;;;;;;;282.20;2278.40;;;;;;4899754;29;20114;-80
2021/04/27 07:51:02;;;;;;;16.98;12.13;;;282.20;2278.40;;;;;;4899451;29;20375;-80
2021/04/27 07:53:27;;;;;;;;;;;282.30;2278.40;;;;;;4899310;29;20040;-79
2021/04/27 07:55:53;;;;;;;20.90;13.30;;;282.40;2278.40;;;;;;4906049;29;19910;-80
2021/04/27 07:58:19;;;;;;;;;;;282.50;2278.40;;;;;;4927043;29;20036;-79
2021/04/27 08:00:45;;;;;;;22.27;13.45;;;282.40;2278.40;;;;;;4906223;29;19914;-81
2021/04/27 08:03:10;;;;;;;;;;;282.40;2278.40;;;;;;4907941;29;20024;-80
2021/04/27 08:05:36;;;;;;;19.02;13.57;;;282.40;2278.40;;;;;;4908696;29;19919;-79
2021/04/27 08:08:02;;;;;;;;;;;282.20;2278.40;;;;;;4908003;29;20459;-80
2021/04/27 08:10:28;;;;;;;22.75;14.10;;;282.40;2278.40;;;;;;4908435;29;19957;-80
2021/04/27 08:12:54;;;;;;;21.90;14.98;;;282.40;2278.40;;;;;;4915960;29;20039;-79
2021/04/27 08:15:23;;;;;;;23.75;15.57;;;282.40;2278.40;;;;;;4915625;29;20024;-79
2021/04/27 08:17:49;;;;;;;28.15;17.15;;;282.20;2278.40;;;;;;4898773;29;20036;-77
2021/04/27 08:20:16;;;;;;;28.60;16.52;;;282.20;2278.40;;;;;;4915636;29;20032;-77
2021/04/27 08:22:43;;;;;;;24.88;15.43;;;282.20;2278.40;;;;;;4898487;29;20107;-79
2021/04/27 08:25:10;;;;;;;26.90;15.45;;;282.20;2278.40;;;;;;4915992;29;20039;-82
2021/04/27 08:27:36;;;;;;;27.83;17.25;;;282.20;2278.40;;;;;;4915546;29;20020;-80
2021/04/27 08:30:03;;;;;;;22.77;14.60;;;282.30;2278.40;;;;;;4915633;29;20119;-79
2021/04/27 08:32:29;;;;;;;23.80;15.02;;;282.30;2278.40;;;;;;4920564;29;20048;-80
2021/04/27 08:34:54;;;;;;;21.45;14.30;;;282.20;2278.40;;;;;;4926261;29;20032;-79
2021/04/27 08:37:20;;;;;;;22.95;16.10;;;282.30;2278.40;;;;;;4907361;29;20028;-79
2021/04/27 08:39:46;;;;;;;;;;;282.20;2278.40;;;;;;4927143;29;20024;-83
2021/04/27 08:42:12;;;;;;;21.42;13.40;;;282.30;2278.40;;;;;;4917131;29;19907;-81
2021/04/27 08:44:39;;;;;;;21.42;13.95;;;282.20;2278.40;;;;;;4917350;29;20055;-78
2021/04/27 08:47:07;;;;;;;21.25;15.20;;;282.20;2278.40;;;;;;4906840;29;20393;-79
2021/04/27 08:49:32;;;;;;;29.13;17.05;;;282.40;2278.40;;;;;;4922961;29;20024;-78
2021/04/27 08:51:58;;;;;;;23.60;15.77;;;282.40;2278.40;;;;;;4907814;29;20036;-80
2021/04/27 08:54:24;;;;;;;21.75;13.80;;;282.30;2278.40;;;;;;4909630;29;20091;-82
2021/04/27 08:56:50;;;;;;;21.73;14.63;;;282.40;2278.40;;;;;;4910745;29;20046;-79
2021/04/27 08:59:16;;;;;;;;;;;282.40;2278.40;;;;;;4912601;29;20027;-82
2021/04/27 09:01:45;;;;;;;26.75;17.20;;;282.40;2278.40;;;;;;4911203;29;19922;-80
2021/04/27 09:04:12;;;;;;;22.15;14.88;;;282.50;2278.40;;;;;;4912824;29;20171;-80
2021/04/27 09:06:38;;;;;;;22.25;14.50;;;282.50;2278.40;;;;;;4909927;29;20111;-79
2021/04/27 09:09:04;;;;;;;29.52;17.55;;;307.20;2304.00;;;;;;4929452;29;20024;-82
2021/04/27 09:11:40;;;;;;;20.40;15.27;;;307.30;2304.00;;;;;;4911141;29;20028;-85
2021/04/27 09:14:17;;;;;;;24.80;16.92;;;307.20;2304.00;;;;;;4912374;29;20408;-85
2021/04/27 09:16:48;;;;;;;26.20;16.60;;;282.50;2278.40;;;;;;4911646;29;20036;-79
2021/04/27 09:19:33;;;;;;;26.00;17.65;;;282.50;2278.40;;;;;;4927997;29;20024;-83
2021/04/27 09:22:05;;;;;;;29.00;19.20;;;282.50;2278.40;;;;;;4921881;29;20025;-81
2021/04/27 09:24:35;;;;;;;22.27;14.88;;;307.20;2304.00;;;;;;4902133;29;20082;-79
2021/04/27 09:27:01;;;;;;;20.25;13.95;;;307.20;2304.00;;;;;;4919183;29;20482;-86
2021/04/27 09:29:32;;;;;;;33.22;21.05;;;307.20;2304.00;;;;;;4902088;29;20040;-93
2021/04/27 09:31:58;;;;;;;29.15;20.13;;;307.20;2304.00;;;;;;4919450;29;20053;-80
2021/04/27 09:34:29;;;;;;;30.33;20.88;;;282.40;2278.40;;;;;;4901889;29;20070;-80
2021/04/27 09:37:10;;;;;;;32.53;19.58;;;307.20;2304.00;;;;;;4918817;29;20035;-79
2021/04/27 09:39:40;;;;;;;30.85;20.25;;;282.50;2278.40;;;;;;4902192;29;20020;-87
2021/04/27 09:42:08;;;;;;;32.70;19.27;;;307.20;2304.00;;;;;;4925350;29;20031;-86
2021/04/27 09:44:39;;;;;;;24.75;16.65;;;307.20;2304.00;;;;;;4926734;29;20039;-86
2021/04/27 09:47:30;;;;;;;22.67;16.35;;;307.20;2304.00;;;;;;4911866;29;20122;-85
2021/04/27 09:49:56;;;;;;;28.05;16.63;;;307.20;2304.00;;;;;;4912204;29;20028;-88
2021/04/27 09:52:22;;;;;;;25.70;16.38;;;307.20;2304.00;;;;;;4911415;29;20111;-84
2021/04/27 09:55:00;;;;;;;23.30;14.23;;;307.30;2304.00;;;;;;4905235;29;20028;-86
2021/04/27 09:57:35;;;;;;;22.48;15.77;;;307.20;2304.00;;;;;;4903763;29;20023;-87
2021/04/27 10:00:19;;;;;;;25.02;16.23;;;307.20;2304.00;;;;;;4922606;29;20490;-78
2021/04/27 10:02:45;;;;;;;23.63;16.30;;;307.20;2304.00;;;;;;4920362;29;20060;-78
2021/04/27 10:05:11;;;;;;;22.67;15.95;;;307.30;2304.00;;;;;;4900383;29;20055;-83
2021/04/27 10:07:39;;;;;;;20.20;13.63;;;307.50;2304.00;;;;;;4904414;29;20024;-82
2021/04/27 10:10:08;;;;;;;20.60;13.20;;;307.40;2304.00;;;;;;4900536;29;20111;-79
2021/04/27 10:12:35;;;;;;;19.20;12.40;;;307.40;2304.00;;;;;;4904865;29;20043;-78
2021/04/27 10:15:01;;;;;;;21.63;12.27;;;307.30;2304.00;;;;;;4922679;29;20560;-82
2021/04/27 10:17:27;;;;;;;18.60;11.50;;;307.40;2304.00;;;;;;4900842;29;20036;-79
2021/04/27 10:19:53;;;;;;;18.88;12.50;;;307.40;2304.00;;;;;;4925460;29;20504;-77
2021/04/27 10:22:19;;;;;;;19.80;11.50;;;307.40;2278.40;;;;;;4917299;29;20020;-79
2021/04/27 10:24:45;;;;;;;17.73;12.55;;;307.30;2278.40;;;;;;4900314;29;20028;-78
2021/04/27 10:27:11;;;;;;;20.58;14.55;;;307.40;2304.00;;;;;;4931429;29;20016;-82
2021/04/27 10:29:37;;;;;;;20.77;13.68;;;307.40;2304.00;;;;;;4909728;29;20061;-79
2021/04/27 10:32:22;;;;;;;18.02;12.23;;;307.60;2304.00;;;;;;4901926;29;20135;-79
2021/04/27 10:34:57;;;;;;;16.75;11.57;;;307.40;2304.00;;;;;;4907719;29;20032;-79
2021/04/27 10:37:24;;;;;;;19.13;12.45;;;307.40;2304.00;;;;;;4882108;29;20126;-84
2021/04/27 10:39:49;;;;;;;17.92;11.90;;;307.50;2304.00;;;;;;4900552;29;20081;-83
2021/04/27 10:42:29;;;;;;;16.05;10.82;;;307.50;2304.00;;;;;;4902652;29;20520;-79
2021/04/27 10:45:05;;;;;;;19.55;13.88;;;307.40;2304.00;;;;;;4907440;29;20039;-81
2021/04/27 10:47:45;;;;;;;28.15;12.48;;;307.50;2304.00;;;;;;4908150;29;20056;-82
2021/04/27 10:50:31;;;;;;;17.00;11.52;;;307.40;2304.00;;;;;;4897808;29;20389;-79
2021/04/27 10:53:30;;;;;;;15.13;10.55;;;307.60;2278.40;;;;;;4898964;29;20051;-84
2021/04/27 10:55:56;;;;;;;15.73;10.30;;;307.40;2304.00;;;;;;4902033;29;20057;-79
2021/04/27 10:58:43;;;;;;;14.02;9.43;;;307.60;2227.20;;;;;;4908300;29;20029;-78
2021/04/27 11:01:19;;;;;;;15.30;9.15;;;307.60;2227.20;;;;;;4900329;29;20059;-78
2021/04/27 11:03:53;;;;;;;15.02;9.82;;;307.50;2150.40;;;;;;4898739;29;20104;-84
2021/04/27 11:06:20;;;;;;;13.95;9.30;;;307.40;2278.40;;;;;;4905720;29;20112;-82
2021/04/27 11:08:47;;;;;;;14.55;9.75;;;307.40;2278.40;;;;;;4905304;29;20024;-84
2021/04/27 11:11:33;;;;;;;18.10;10.43;;;307.50;2278.40;;;;;;4908673;29;20107;-79
2021/04/27 11:14:20;;;;;;;14.65;9.00;;;307.60;2252.80;;;;;;4904120;29;20028;-80
2021/04/27 11:16:57;;;;;;;12.35;9.25;;;307.70;2227.20;;;;;;4903118;29;20033;-79
2021/04/27 11:19:27;;;;;;;11.48;8.10;;;307.80;2124.80;;;;;;4909491;29;20556;-80
2021/04/27 11:21:55;;;;;;;13.68;7.88;;;307.80;2150.40;;;;;;4911100;29;20036;-83
2021/04/27 11:24:40;;;;;;;14.82;8.38;;;307.90;2150.40;;;;;;4914781;29;20032;-83
2021/04/27 11:27:33;;;;;;;12.13;8.00;;;307.90;2150.40;;;;;;4915600;29;20061;-80
2021/04/27 11:30:03;;;;;;;11.65;7.70;;;308.00;2227.20;;;;;;4915903;29;20540;-79
2021/04/27 11:32:31;;;;;;;9.75;6.47;;;308.10;2124.80;;;;;;4915558;29;20067;-79
2021/04/27 11:35:10;;;;;;;9.77;6.97;;;332.80;1996.80;;;;;;4915800;29;20047;-80
2021/04/27 11:37:43;;;;;;;10.23;7.45;;;333.00;1971.20;;;;;;4916880;29;20030;-80
2021/04/27 11:40:20;;;;;;;15.02;7.97;;;333.00;2048.00;;;;;;4915229;29;20119;-80
2021/04/27 11:42:51;;;;;;;16.95;8.27;;;333.10;2073.60;;;;;;4915343;29;20075;-79
2021/04/27 11:45:19;;;;;;;14.32;7.43;;;333.10;2124.80;;;;;;4907648;29;20123;-80
2021/04/27 11:47:47;;;;;;;10.73;6.28;;;333.10;2150.40;;;;;;4905679;29;20025;-79
2021/04/27 11:50:19;;;;;;;13.13;7.57;;;308.10;1996.80;;;;;;4903074;29;20497;-79
2021/04/27 11:52:50;;;;;;;11.18;6.93;;;332.80;2099.20;;;;;;4895934;29;20057;-79
2021/04/27 11:55:23;;;;;;;10.57;6.63;;;332.80;2124.80;;;;;;4897380;29;20032;-79
2021/04/27 11:57:51;;;;;;;15.05;7.90;;;333.00;1996.80;;;;;;4898730;29;20281;-79
2021/04/27 12:00:18;;;;;;;10.07;7.00;;;333.10;2022.40;;;;;;4914990;29;20095;-80
2021/04/27 12:02:45;;;;;;;13.95;6.97;;;333.30;1945.60;;;;;;4907688;29;20044;-79
2021/04/27 12:05:12;;;;;;;12.63;6.80;;;333.30;1971.20;;;;;;4894838;29;20025;-79
2021/04/27 12:07:38;;;;;;;9.85;7.85;;;333.40;1894.40;;;;;;4895255;29;20032;-80
2021/04/27 12:10:05;;;;;;;11.35;6.85;;;333.40;1868.80;;;;;;4896420;29;20025;-79
2021/04/27 12:12:30;;;;;;;14.18;7.82;;;333.40;1868.80;;;;;;4895081;29;20032;-79
2021/04/27 12:15:00;;;;;;;10.25;6.65;;;333.40;1996.80;;;;;;4899016;29;20405;-79
2021/04/27 12:17:35;;;;;;;8.90;6.22;;;333.30;1945.60;;;;;;4894626;29;20036;-79